Time;durP1;ratioP1;P1;durP2;ratioP2;P2;SDS_P1;SDS_P2;PMS_P1;PMS_P2;Temp;Humidity;BMP_temperature;BMP_pressure;BME280_temperature;BME280_humidity;BME280_pressure;Samples;Min_cycle;Max_cycle;Signal;HPM_P1;HPM_P2
2024/02/20 00:00:23;;;;;;;8.35;5.57;;;7.40;62.50;;;;;;5060909;28;20120;-83
2024/02/20 00:02:49;;;;;;;7.53;5.82;;;7.50;62.50;;;;;;5059664;28;20040;-82
2024/02/20 00:05:15;;;;;;;9.18;5.20;;;7.40;62.30;;;;;;5060171;28;20060;-83
2024/02/20 00:07:41;;;;;;;7.63;4.80;;;7.40;62.50;;;;;;5060998;28;20033;-81
2024/02/20 00:10:08;;;;;;;6.47;5.13;;;7.40;62.30;;;;;;5042527;28;20493;-82
2024/02/20 00:12:37;;;;;;;7.20;5.45;;;7.40;62.20;;;;;;5059005;28;20036;-82
2024/02/20 00:15:08;;;;;;;9.30;5.40;;;7.40;62.30;;;;;;5026637;28;20040;-82
2024/02/20 00:17:37;;;;;;;5.95;4.97;;;7.40;62.20;;;;;;5045515;28;20056;-81
2024/02/20 00:20:06;;;;;;;10.43;6.07;;;7.40;62.10;;;;;;5058365;28;20174;-82
2024/02/20 00:22:33;;;;;;;6.25;5.10;;;7.40;62.00;;;;;;5061511;28;20083;-83
2024/02/20 00:24:59;;;;;;;8.15;5.38;;;7.40;62.00;;;;;;5058845;28;20122;-82
2024/02/20 00:27:25;;;;;;;8.73;5.55;;;7.40;62.10;;;;;;5026627;28;20033;-82
2024/02/20 00:29:53;;;;;;;8.55;5.63;;;7.30;62.10;;;;;;5042770;28;20114;-83
2024/02/20 00:32:22;;;;;;;7.90;5.05;;;7.30;62.10;;;;;;5047125;28;20503;-83
2024/02/20 00:34:48;;;;;;;7.65;5.80;;;7.30;61.90;;;;;;5040286;28;20037;-82
2024/02/20 00:37:15;;;;;;;7.75;5.95;;;7.30;62.20;;;;;;5046827;28;20040;-81
2024/02/20 00:39:41;;;;;;;8.57;5.57;;;7.30;62.30;;;;;;5026960;28;20751;-83
2024/02/20 00:42:08;;;;;;;7.90;5.32;;;7.30;62.30;;;;;;5029383;28;20040;-82
2024/02/20 00:44:34;;;;;;;8.65;5.88;;;7.30;62.20;;;;;;5046394;28;20137;-82
2024/02/20 00:47:00;;;;;;;9.00;5.68;;;7.30;62.30;;;;;;5030983;28;20089;-83
2024/02/20 00:49:26;;;;;;;8.25;5.82;;;7.30;62.30;;;;;;5025151;28;20040;-82
2024/02/20 00:51:52;;;;;;;8.45;5.57;;;7.30;62.20;;;;;;5061050;28;20036;-81
2024/02/20 00:54:18;;;;;;;8.50;5.60;;;7.30;62.30;;;;;;5057996;28;20029;-82
2024/02/20 00:56:44;;;;;;;11.82;6.30;;;7.30;62.30;;;;;;5061180;28;20535;-82
2024/02/20 00:59:11;;;;;;;7.82;5.63;;;7.20;62.40;;;;;;5029123;28;20044;-83
2024/02/20 01:01:37;;;;;;;11.68;5.72;;;7.20;62.40;;;;;;5043003;28;20060;-85
2024/02/20 01:04:04;;;;;;;9.10;5.53;;;7.20;62.50;;;;;;5047508;28;20041;-84
2024/02/20 01:06:31;;;;;;;8.43;5.85;;;7.20;62.30;;;;;;5041584;28;20044;-83
2024/02/20 01:08:57;;;;;;;9.05;6.25;;;7.20;62.30;;;;;;5042126;28;20508;-82
2024/02/20 01:11:23;;;;;;;8.32;5.93;;;7.30;62.50;;;;;;5059989;28;20467;-82
2024/02/20 01:13:49;;;;;;;7.82;5.75;;;7.20;62.50;;;;;;5061136;28;20047;-81
2024/02/20 01:16:17;;;;;;;10.07;6.18;;;7.20;62.50;;;;;;5060103;28;20033;-81
2024/02/20 01:18:43;;;;;;;8.38;6.35;;;7.20;62.60;;;;;;5041119;28;20523;-82
2024/02/20 01:21:10;;;;;;;7.68;5.85;;;7.20;62.60;;;;;;5030834;28;20058;-82
2024/02/20 01:23:36;;;;;;;8.13;6.07;;;7.20;62.70;;;;;;5041403;28;20622;-80
2024/02/20 01:26:02;;;;;;;10.07;6.32;;;7.20;62.50;;;;;;5060629;28;20033;-80
2024/02/20 01:28:28;;;;;;;9.43;6.13;;;7.20;62.60;;;;;;5040898;28;20113;-80
2024/02/20 01:30:54;;;;;;;9.40;6.03;;;7.20;62.50;;;;;;5030257;28;21044;-80
2024/02/20 01:33:20;;;;;;;10.25;6.20;;;7.20;62.40;;;;;;5050920;28;20032;-80
2024/02/20 01:35:46;;;;;;;8.07;5.97;;;7.20;62.30;;;;;;5058641;28;20035;-80
2024/02/20 01:38:12;;;;;;;9.38;6.18;;;7.20;62.20;;;;;;5044954;28;20037;-80
2024/02/20 01:40:39;;;;;;;8.32;6.18;;;7.20;62.10;;;;;;5059375;28;20051;-83
2024/02/20 01:43:06;;;;;;;9.88;5.65;;;7.10;62.10;;;;;;5058852;28;20041;-82
2024/02/20 01:45:33;;;;;;;8.95;5.75;;;7.10;62.10;;;;;;5059186;28;20462;-83
2024/02/20 01:48:04;;;;;;;7.72;5.00;;;7.20;62.20;;;;;;5029341;28;20044;-82
2024/02/20 01:50:35;;;;;;;8.43;5.40;;;7.10;62.00;;;;;;5060530;28;20040;-82
2024/02/20 01:53:03;;;;;;;9.23;5.45;;;7.10;61.90;;;;;;5059164;28;20269;-81
2024/02/20 01:55:29;;;;;;;7.15;4.68;;;7.10;61.80;;;;;;5059931;28;20040;-81
2024/02/20 01:57:56;;;;;;;8.10;5.05;;;7.10;62.00;;;;;;5012585;28;20029;-82
2024/02/20 02:00:22;;;;;;;6.75;5.43;;;7.10;61.80;;;;;;5041601;28;20029;-81
2024/02/20 02:02:49;;;;;;;7.95;5.03;;;7.10;61.90;;;;;;5045516;28;20040;-80
2024/02/20 02:05:15;;;;;;;7.65;5.05;;;7.10;62.10;;;;;;5042752;28;20078;-81
2024/02/20 02:07:41;;;;;;;5.97;4.63;;;7.10;62.20;;;;;;5045728;28;20429;-81
2024/02/20 02:10:08;;;;;;;6.05;4.90;;;7.10;61.90;;;;;;5063455;28;20024;-81
2024/02/20 02:12:34;;;;;;;8.85;5.53;;;7.10;61.80;;;;;;5032941;28;20425;-80
2024/02/20 02:15:00;;;;;;;7.07;5.45;;;7.10;61.80;;;;;;5049343;28;20032;-81
2024/02/20 02:17:26;;;;;;;6.30;4.72;;;7.00;61.70;;;;;;5061252;28;20052;-81
2024/02/20 02:19:52;;;;;;;7.90;4.80;;;7.00;61.70;;;;;;5062828;28;20502;-82
2024/02/20 02:22:18;;;;;;;8.30;5.13;;;7.00;61.70;;;;;;5046354;28;20044;-84
2024/02/20 02:24:44;;;;;;;7.00;5.30;;;7.00;61.60;;;;;;5062931;28;20222;-83
2024/02/20 02:27:11;;;;;;;8.88;5.43;;;7.00;61.70;;;;;;5061622;28;20035;-84
2024/02/20 02:29:37;;;;;;;8.02;4.75;;;7.00;61.60;;;;;;5062479;28;20123;-83
2024/02/20 02:32:04;;;;;;;8.02;5.57;;;7.00;61.40;;;;;;5045439;28;20112;-80
2024/02/20 02:34:30;;;;;;;8.23;5.28;;;7.00;61.50;;;;;;5061438;28;20055;-80
2024/02/20 02:36:56;;;;;;;6.75;5.30;;;7.00;61.70;;;;;;5061716;28;20116;-80
2024/02/20 02:39:23;;;;;;;9.70;4.65;;;7.00;61.70;;;;;;5043736;28;20033;-80
2024/02/20 02:41:50;;;;;;;7.03;5.40;;;7.00;61.80;;;;;;5063015;28;20037;-80
2024/02/20 02:44:17;;;;;;;9.15;5.93;;;7.00;61.90;;;;;;5042643;28;20047;-80
2024/02/20 02:46:43;;;;;;;8.35;5.47;;;7.00;62.00;;;;;;5061172;28;20044;-80
2024/02/20 02:49:09;;;;;;;7.50;5.80;;;7.00;61.90;;;;;;5032426;28;20205;-80
2024/02/20 02:51:36;;;;;;;9.18;6.07;;;7.00;61.90;;;;;;5043349;28;20033;-80
2024/02/20 02:54:02;;;;;;;7.75;5.40;;;7.00;61.90;;;;;;5026309;28;20033;-80
2024/02/20 02:56:31;;;;;;;8.02;5.70;;;6.90;61.70;;;;;;5048257;28;20395;-84
2024/02/20 02:59:01;;;;;;;9.77;5.88;;;6.90;61.70;;;;;;5044764;28;20074;-84
2024/02/20 03:01:27;;;;;;;12.23;6.55;;;6.90;61.80;;;;;;5063656;28;20036;-83
2024/02/20 03:03:53;;;;;;;8.55;6.10;;;6.90;61.70;;;;;;5044159;28;20025;-81
2024/02/20 03:06:19;;;;;;;11.80;6.72;;;6.90;61.70;;;;;;5042446;28;20086;-82
2024/02/20 03:08:45;;;;;;;9.57;6.22;;;6.90;61.70;;;;;;5047940;28;20502;-83
2024/02/20 03:11:16;;;;;;;8.57;6.30;;;6.90;61.50;;;;;;5061749;28;20518;-81
2024/02/20 03:13:43;;;;;;;8.90;5.95;;;6.90;61.50;;;;;;5043051;28;20506;-81
2024/02/20 03:16:10;;;;;;;9.10;6.35;;;6.90;61.60;;;;;;5048470;28;20029;-81
2024/02/20 03:18:38;;;;;;;8.60;5.60;;;6.90;61.40;;;;;;5026415;28;20051;-81
2024/02/20 03:21:04;;;;;;;9.38;6.20;;;6.90;61.40;;;;;;5058855;28;20090;-81
2024/02/20 03:23:31;;;;;;;9.80;6.15;;;6.90;61.40;;;;;;5030831;28;20040;-81
2024/02/20 03:25:58;;;;;;;8.68;6.40;;;6.90;61.40;;;;;;5024692;28;20037;-81
2024/02/20 03:28:25;;;;;;;8.65;6.43;;;6.90;61.30;;;;;;5060694;28;20525;-80
2024/02/20 03:30:51;;;;;;;11.10;6.15;;;6.90;61.40;;;;;;5030008;28;20039;-80
2024/02/20 03:33:20;;;;;;;10.85;6.68;;;6.80;61.50;;;;;;5059561;28;20542;-80
2024/02/20 03:35:46;;;;;;;10.82;6.68;;;6.80;61.60;;;;;;5042221;28;20556;-80
2024/02/20 03:38:13;;;;;;;8.38;6.53;;;6.80;61.50;;;;;;5059487;28;20510;-80
2024/02/20 03:40:39;;;;;;;12.10;7.07;;;6.80;61.50;;;;;;5030768;28;20394;-80
2024/02/20 03:43:05;;;;;;;10.25;6.63;;;6.80;61.50;;;;;;5060876;28;21018;-80
2024/02/20 03:45:31;;;;;;;11.82;6.97;;;6.80;61.50;;;;;;5059846;28;20563;-80
2024/02/20 03:47:58;;;;;;;10.57;6.82;;;6.80;61.70;;;;;;5061292;28;20777;-80
2024/02/20 03:50:24;;;;;;;10.27;7.07;;;6.80;61.40;;;;;;5035513;28;20044;-81
2024/02/20 03:52:50;;;;;;;10.30;6.38;;;6.80;61.30;;;;;;5030101;28;20032;-82
2024/02/20 03:55:18;;;;;;;10.98;7.20;;;6.80;61.40;;;;;;5044390;28;20055;-80
2024/02/20 03:57:43;;;;;;;11.38;7.22;;;6.80;61.30;;;;;;5059922;28;20044;-81
2024/02/20 04:00:14;;;;;;;11.75;7.13;;;6.80;61.20;;;;;;5060738;28;20037;-78
2024/02/20 04:02:43;;;;;;;11.05;6.88;;;6.80;61.40;;;;;;5060852;28;20043;-75
2024/02/20 04:05:11;;;;;;;12.25;6.80;;;6.80;61.40;;;;;;5039686;28;20028;-76
2024/02/20 04:07:41;;;;;;;13.48;7.40;;;6.80;61.50;;;;;;5059844;28;20032;-76
2024/02/20 04:10:09;;;;;;;11.95;6.88;;;6.80;61.30;;;;;;5026834;28;20452;-76
2024/02/20 04:12:35;;;;;;;12.40;7.05;;;6.70;61.40;;;;;;5060319;28;20070;-76
2024/02/20 04:15:08;;;;;;;12.77;7.28;;;6.70;61.30;;;;;;5042382;28;20036;-77
2024/02/20 04:17:35;;;;;;;13.38;7.40;;;6.70;61.30;;;;;;5012695;28;20125;-79
2024/02/20 04:20:08;;;;;;;12.93;7.57;;;6.70;61.40;;;;;;5041362;28;20085;-77
2024/02/20 04:22:37;;;;;;;12.23;7.18;;;6.70;61.50;;;;;;5059666;28;20095;-77
2024/02/20 04:25:05;;;;;;;10.40;6.72;;;6.70;61.80;;;;;;5040388;28;20043;-77
2024/02/20 04:27:31;;;;;;;15.00;7.78;;;6.70;62.00;;;;;;5028474;28;20051;-76
2024/02/20 04:29:57;;;;;;;11.82;6.97;;;6.70;61.90;;;;;;5059952;28;20040;-76
2024/02/20 04:32:23;;;;;;;9.75;7.15;;;6.70;61.70;;;;;;5059315;28;20041;-76
2024/02/20 04:34:49;;;;;;;11.93;7.50;;;6.70;61.70;;;;;;5058559;28;20037;-79
2024/02/20 04:37:55;;;;;;;13.73;8.55;;;6.70;61.70;;;;;;5040934;28;20090;-80
2024/02/20 04:40:49;;;;;;;14.38;8.15;;;6.70;61.70;;;;;;5047077;28;20352;-80
2024/02/20 04:43:17;;;;;;;14.40;8.35;;;6.70;61.50;;;;;;5062252;28;20505;-79
2024/02/20 04:45:44;;;;;;;11.95;8.15;;;6.70;61.40;;;;;;5061357;28;20041;-78
2024/02/20 04:48:10;;;;;;;16.00;8.52;;;6.60;61.20;;;;;;5023847;28;20091;-82
2024/02/20 04:50:36;;;;;;;12.50;7.60;;;6.70;61.20;;;;;;5030009;28;20035;-78
2024/02/20 04:53:03;;;;;;;15.25;8.73;;;6.70;61.10;;;;;;5063516;28;20040;-77
2024/02/20 04:55:28;;;;;;;14.30;8.15;;;6.60;61.10;;;;;;5063725;28;20028;-77
2024/02/20 04:57:55;;;;;;;13.30;8.70;;;6.60;61.20;;;;;;5063460;28;20139;-75
2024/02/20 05:00:21;;;;;;;14.52;8.82;;;6.60;60.90;;;;;;5062983;28;20028;-75
2024/02/20 05:02:47;;;;;;;16.42;8.82;;;6.60;60.90;;;;;;5063888;28;20169;-76
2024/02/20 05:05:14;;;;;;;12.25;8.38;;;6.60;60.90;;;;;;5062848;28;20118;-75
2024/02/20 05:07:40;;;;;;;13.13;8.38;;;6.60;60.80;;;;;;5063512;28;20032;-77
2024/02/20 05:10:07;;;;;;;13.38;8.60;;;6.60;60.90;;;;;;5041778;28;20062;-73
2024/02/20 05:12:37;;;;;;;14.05;8.18;;;6.60;61.10;;;;;;5058993;28;20032;-73
2024/02/20 05:15:04;;;;;;;13.85;7.68;;;6.60;61.00;;;;;;5059237;28;20169;-73
2024/02/20 05:17:30;;;;;;;11.50;8.45;;;6.60;61.10;;;;;;5059647;28;20179;-73
2024/02/20 05:19:56;;;;;;;13.15;8.45;;;6.60;61.00;;;;;;5059488;28;20064;-76
2024/02/20 05:22:22;;;;;;;16.10;8.35;;;6.60;61.20;;;;;;5057707;28;20125;-74
2024/02/20 05:24:48;;;;;;;15.55;9.18;;;6.60;61.00;;;;;;5039322;28;20036;-75
2024/02/20 05:27:14;;;;;;;12.93;7.25;;;6.60;60.90;;;;;;5057458;28;20029;-75
2024/02/20 05:29:40;;;;;;;13.00;8.45;;;6.60;61.00;;;;;;5059856;28;20453;-74
2024/02/20 05:34:51;;;;;;;12.02;8.00;;;6.70;61.20;;;;;;5057944;28;20134;-74
2024/02/20 05:37:35;;;;;;;12.02;7.82;;;6.70;62.30;;;;;;5062715;28;20052;-75
2024/02/20 05:40:02;;;;;;;12.98;7.90;;;6.80;62.10;;;;;;5063515;28;20083;-75
2024/02/20 05:42:28;;;;;;;13.02;7.85;;;6.80;62.50;;;;;;5046806;28;20036;-75
2024/02/20 05:44:54;;;;;;;12.63;7.82;;;6.90;62.90;;;;;;5048926;28;20040;-75
2024/02/20 05:47:20;;;;;;;11.48;7.13;;;7.00;63.00;;;;;;5061926;28;20110;-75
2024/02/20 05:49:46;;;;;;;11.27;7.25;;;7.10;63.00;;;;;;5059760;28;20037;-75
2024/02/20 05:52:12;;;;;;;13.23;7.55;;;7.10;62.90;;;;;;5062687;28;20033;-75
2024/02/20 05:54:38;;;;;;;13.57;7.55;;;7.20;62.80;;;;;;5044449;28;20033;-75
2024/02/20 05:57:05;;;;;;;11.95;7.45;;;7.30;62.80;;;;;;5063072;28;20067;-74
2024/02/20 05:59:31;;;;;;;12.63;7.78;;;7.30;62.90;;;;;;5062120;28;20314;-74
2024/02/20 06:01:57;;;;;;;11.73;8.15;;;7.40;63.10;;;;;;5031811;28;20059;-74
2024/02/20 06:04:23;;;;;;;11.45;7.72;;;7.50;63.00;;;;;;5043594;28;20083;-75
2024/02/20 06:06:49;;;;;;;12.55;7.70;;;7.50;62.80;;;;;;5064259;28;20479;-75
2024/02/20 06:09:15;;;;;;;12.63;8.13;;;7.60;62.70;;;;;;5048265;28;20454;-75
2024/02/20 06:11:41;;;;;;;12.10;7.90;;;7.70;62.70;;;;;;5061982;28;20119;-74
2024/02/20 06:14:07;;;;;;;14.65;8.80;;;7.80;62.60;;;;;;5061284;28;20032;-76
2024/02/20 06:16:33;;;;;;;11.38;7.70;;;7.80;62.50;;;;;;5045162;28;20029;-75
2024/02/20 06:18:59;;;;;;;14.38;8.57;;;7.90;62.50;;;;;;5062915;28;20538;-75
2024/02/20 06:21:25;;;;;;;13.63;8.10;;;8.00;62.60;;;;;;5062024;28;20129;-76
2024/02/20 06:23:51;;;;;;;12.80;7.90;;;8.00;62.50;;;;;;5031536;28;20178;-75
2024/02/20 06:26:18;;;;;;;11.65;7.68;;;8.10;62.40;;;;;;5062627;28;20499;-76
2024/02/20 06:28:45;;;;;;;12.32;8.13;;;8.20;62.50;;;;;;5060779;28;20033;-77
2024/02/20 06:31:11;;;;;;;14.30;8.65;;;8.20;62.30;;;;;;5061799;28;20024;-75
2024/02/20 06:33:39;;;;;;;11.63;7.57;;;8.30;62.20;;;;;;5060249;28;20121;-78
2024/02/20 06:36:06;;;;;;;10.02;7.63;;;8.40;62.00;;;;;;5043720;28;20119;-75
2024/02/20 06:38:32;;;;;;;13.73;8.68;;;8.50;62.00;;;;;;5061205;28;20153;-76
2024/02/20 06:40:59;;;;;;;12.52;8.23;;;8.50;62.20;;;;;;5061876;28;20176;-78
2024/02/20 06:43:26;;;;;;;12.15;8.30;;;8.60;62.10;;;;;;5042426;28;20090;-78
2024/02/20 06:45:53;;;;;;;12.88;8.90;;;8.70;62.10;;;;;;5062059;28;20082;-78
2024/02/20 06:48:20;;;;;;;13.82;8.40;;;8.80;62.00;;;;;;5061939;28;20052;-78
2024/02/20 06:50:46;;;;;;;15.13;8.32;;;8.80;62.00;;;;;;5061604;28;20029;-78
2024/02/20 06:53:12;;;;;;;12.30;7.88;;;8.90;62.10;;;;;;5061786;28;20376;-75
2024/02/20 06:55:38;;;;;;;12.48;7.45;;;9.00;62.20;;;;;;5062242;28;20135;-75
2024/02/20 06:58:04;;;;;;;14.02;8.98;;;9.00;62.10;;;;;;5059658;28;20045;-77
2024/02/20 07:00:30;;;;;;;13.50;7.57;;;9.10;62.00;;;;;;5047940;28;20074;-76
2024/02/20 07:02:56;;;;;;;11.80;7.68;;;9.20;61.90;;;;;;5060254;28;20037;-75
2024/02/20 07:05:22;;;;;;;12.60;7.95;;;9.20;61.60;;;;;;5061301;28;20037;-77
2024/02/20 07:07:48;;;;;;;13.07;8.10;;;9.30;61.50;;;;;;5046902;28;20047;-76
2024/02/20 07:10:33;;;;;;;14.35;7.60;;;9.30;61.70;;;;;;5048497;28;20116;-74
2024/02/20 07:13:00;;;;;;;12.60;8.05;;;9.40;61.70;;;;;;5062358;28;20407;-74
2024/02/20 07:15:26;;;;;;;14.88;8.13;;;9.50;61.70;;;;;;5043740;28;20028;-74
2024/02/20 07:17:52;;;;;;;13.88;8.52;;;9.50;61.90;;;;;;5038659;28;20059;-74
2024/02/20 07:20:18;;;;;;;13.30;8.35;;;9.60;61.90;;;;;;5061172;28;20029;-73
2024/02/20 07:22:44;;;;;;;13.07;7.30;;;9.70;62.00;;;;;;5040461;28;20064;-75
2024/02/20 07:25:11;;;;;;;12.15;7.75;;;9.70;61.60;;;;;;5061333;28;20077;-76
2024/02/20 07:27:37;;;;;;;16.88;7.82;;;9.80;62.20;;;;;;5045561;28;20502;-75
2024/02/20 07:30:03;;;;;;;13.23;7.07;;;9.80;62.20;;;;;;5059910;28;20040;-77
2024/02/20 07:32:30;;;;;;;11.60;7.43;;;9.90;62.10;;;;;;5060976;28;20429;-75
2024/02/20 07:34:56;;;;;;;10.57;6.78;;;9.90;61.70;;;;;;5039998;28;20033;-74
2024/02/20 07:37:22;;;;;;;10.45;6.93;;;10.00;61.80;;;;;;5042044;28;20064;-76
2024/02/20 07:39:48;;;;;;;10.18;6.35;;;10.10;62.10;;;;;;5047119;28;20033;-76
2024/02/20 07:42:14;;;;;;;8.70;6.43;;;10.10;62.10;;;;;;5046604;28;20037;-76
2024/02/20 07:44:40;;;;;;;9.60;6.15;;;10.20;62.10;;;;;;5061034;28;20132;-76
2024/02/20 07:47:06;;;;;;;12.68;6.43;;;10.20;62.30;;;;;;5043984;28;20040;-75
2024/02/20 07:49:32;;;;;;;9.77;5.95;;;10.30;62.30;;;;;;5059666;28;20040;-75
2024/02/20 07:51:58;;;;;;;10.02;5.70;;;10.30;62.40;;;;;;5047193;28;20036;-76
2024/02/20 07:54:24;;;;;;;9.82;5.82;;;10.30;62.50;;;;;;5059695;28;20044;-74
2024/02/20 07:56:50;;;;;;;9.02;5.28;;;10.30;62.40;;;;;;5030315;28;20086;-74
2024/02/20 07:59:16;;;;;;;8.68;5.60;;;10.40;63.20;;;;;;5045917;28;20062;-75
2024/02/20 08:01:51;;;;;;;10.52;5.55;;;10.50;62.90;;;;;;5042276;28;20032;-74
2024/02/20 08:04:22;;;;;;;12.82;6.00;;;10.60;62.60;;;;;;5055754;28;20033;-77
2024/02/20 08:06:48;;;;;;;6.88;4.90;;;10.60;62.30;;;;;;5060134;28;20676;-80
2024/02/20 08:09:14;;;;;;;8.07;5.15;;;10.70;61.90;;;;;;5057357;28;20041;-78
2024/02/20 08:11:41;;;;;;;11.77;6.28;;;10.70;62.00;;;;;;5057674;28;20037;-78
2024/02/20 08:14:07;;;;;;;8.75;5.00;;;10.80;62.50;;;;;;5057023;28;20068;-79
2024/02/20 08:16:35;;;;;;;14.68;5.40;;;10.80;63.10;;;;;;5039741;28;20048;-79
2024/02/20 08:19:01;;;;;;;6.53;4.75;;;10.80;63.30;;;;;;5058669;28;20078;-78
2024/02/20 08:21:27;;;;;;;9.55;4.97;;;10.80;63.10;;;;;;5058665;28;20078;-80
2024/02/20 08:23:53;;;;;;;7.78;5.28;;;10.80;63.10;;;;;;5057841;28;20033;-78
2024/02/20 08:26:19;;;;;;;8.02;4.95;;;10.90;63.00;;;;;;5027677;28;20043;-78
2024/02/20 08:28:46;;;;;;;7.63;4.68;;;10.90;62.80;;;;;;5056847;28;20427;-79
2024/02/20 08:31:12;;;;;;;8.52;5.10;;;10.90;62.60;;;;;;5058923;28;20498;-79
2024/02/20 08:33:38;;;;;;;6.57;4.60;;;10.90;62.60;;;;;;5057518;28;20033;-78
2024/02/20 08:36:05;;;;;;;9.90;5.10;;;10.90;62.40;;;;;;5058574;28;20094;-77
2024/02/20 08:38:31;;;;;;;8.20;4.43;;;11.00;62.60;;;;;;5058791;28;20499;-77
2024/02/20 08:40:57;;;;;;;6.97;4.47;;;11.00;62.40;;;;;;5039455;28;20032;-80
2024/02/20 08:43:23;;;;;;;6.60;4.45;;;10.90;62.40;;;;;;5057261;28;20044;-78
2024/02/20 08:45:49;;;;;;;6.40;4.68;;;11.00;62.30;;;;;;5059767;28;20033;-78
2024/02/20 08:48:15;;;;;;;7.57;4.18;;;11.00;62.30;;;;;;5028128;28;20043;-84
2024/02/20 08:50:41;;;;;;;7.22;4.32;;;11.00;62.40;;;;;;5062762;28;20124;-82
2024/02/20 08:53:10;;;;;;;8.20;4.20;;;11.00;62.70;;;;;;5040145;28;20039;-80
2024/02/20 08:55:38;;;;;;;8.73;4.38;;;11.00;62.60;;;;;;5038488;28;20024;-79
2024/02/20 08:58:04;;;;;;;7.45;4.32;;;11.00;62.50;;;;;;5053432;28;20032;-80
2024/02/20 09:00:31;;;;;;;7.00;4.90;;;11.00;62.30;;;;;;5025237;28;20398;-79
2024/02/20 09:02:58;;;;;;;5.32;4.10;;;11.00;62.20;;;;;;5059825;28;20131;-80
2024/02/20 09:05:24;;;;;;;7.57;4.95;;;11.00;61.90;;;;;;5041977;28;20372;-81
2024/02/20 09:07:51;;;;;;;5.70;4.10;;;11.00;61.90;;;;;;5040392;28;20378;-82
2024/02/20 09:10:17;;;;;;;6.57;4.40;;;11.00;61.80;;;;;;5013402;28;20059;-82
2024/02/20 09:12:43;;;;;;;6.13;4.22;;;11.00;61.80;;;;;;5033571;28;20478;-81
2024/02/20 09:15:09;;;;;;;5.47;3.90;;;11.00;61.70;;;;;;5062716;28;20042;-81
2024/02/20 09:17:35;;;;;;;6.40;4.13;;;11.00;61.60;;;;;;5044403;28;20114;-80
2024/02/20 09:20:01;;;;;;;5.85;4.32;;;10.90;61.50;;;;;;5063967;28;20032;-80
2024/02/20 09:22:27;;;;;;;6.63;3.97;;;11.00;61.60;;;;;;5063973;28;20549;-80
2024/02/20 09:24:53;;;;;;;5.72;3.85;;;11.00;61.60;;;;;;5065517;28;20146;-79
2024/02/20 09:27:20;;;;;;;7.25;4.43;;;11.00;61.60;;;;;;5043516;28;20088;-79
2024/02/20 09:29:46;;;;;;;7.30;4.13;;;11.00;61.50;;;;;;5063315;28;20050;-80
2024/02/20 09:32:13;;;;;;;7.32;4.50;;;11.00;61.50;;;;;;5029027;28;20525;-81
2024/02/20 09:34:39;;;;;;;5.63;3.97;;;11.00;61.30;;;;;;5043354;28;20449;-81
2024/02/20 09:37:05;;;;;;;5.45;3.72;;;11.00;61.40;;;;;;5043925;28;20036;-81
2024/02/20 09:39:31;;;;;;;5.65;3.88;;;11.00;61.30;;;;;;5028994;28;20036;-78
2024/02/20 09:42:04;;;;;;;5.38;3.45;;;11.00;61.30;;;;;;5062266;28;20136;-78
2024/02/20 09:44:32;;;;;;;6.22;3.92;;;11.00;61.40;;;;;;5062790;28;20526;-83
2024/02/20 09:47:02;;;;;;;7.15;3.17;;;11.00;61.70;;;;;;5047667;28;20051;-88
2024/02/20 09:49:29;;;;;;;5.20;3.42;;;11.00;61.80;;;;;;5043725;28;20041;-89
2024/02/20 09:51:58;;;;;;;5.63;3.15;;;11.00;61.80;;;;;;5030490;28;20179;-88
2024/02/20 09:54:26;;;;;;;5.85;3.42;;;10.90;61.90;;;;;;5021784;28;20040;-90
2024/02/20 09:56:57;;;;;;;4.32;3.40;;;10.90;61.60;;;;;;5033844;28;20048;-90
2024/02/20 09:59:23;;;;;;;3.92;3.10;;;10.90;61.40;;;;;;5048097;28;20032;-90
2024/02/20 10:02:08;;;;;;;8.88;3.85;;;10.90;61.50;;;;;;5038781;28;20032;-89
2024/02/20 10:04:34;;;;;;;7.55;4.03;;;10.90;61.40;;;;;;5050537;28;20037;-88
2024/02/20 10:07:06;;;;;;;6.80;4.38;;;10.90;61.60;;;;;;5047387;28;20442;-88
2024/02/20 10:09:32;;;;;;;7.13;4.13;;;10.90;61.50;;;;;;5030009;28;20040;-87
2024/02/20 10:11:58;;;;;;;6.22;4.13;;;10.90;61.30;;;;;;5031991;28;20051;-89
2024/02/20 10:14:28;;;;;;;4.55;3.50;;;10.90;61.70;;;;;;5030787;28;20032;-88
2024/02/20 10:17:02;;;;;;;3.92;2.70;;;10.90;61.70;;;;;;5025456;28;20124;-88
2024/02/20 10:19:29;;;;;;;6.40;3.40;;;10.90;61.90;;;;;;5019908;28;20151;-89
2024/02/20 10:22:13;;;;;;;4.03;2.90;;;10.90;61.70;;;;;;5030105;28;20037;-89
2024/02/20 10:24:39;;;;;;;4.60;3.38;;;10.90;61.50;;;;;;5063131;28;20033;-88
2024/02/20 10:27:06;;;;;;;5.78;3.60;;;10.90;61.60;;;;;;5016656;28;20410;-89
2024/02/20 10:29:32;;;;;;;6.13;3.40;;;10.90;61.60;;;;;;5049818;28;21454;-89
2024/02/20 10:31:58;;;;;;;4.40;3.35;;;10.90;61.70;;;;;;5029158;28;20032;-88
2024/02/20 10:34:24;;;;;;;4.80;3.35;;;10.80;61.70;;;;;;5020636;28;20074;-89
2024/02/20 10:36:50;;;;;;;6.03;4.43;;;10.80;61.80;;;;;;5034990;28;20036;-89
2024/02/20 10:39:19;;;;;;;5.82;4.28;;;10.80;61.70;;;;;;5015748;28;20047;-90
2024/02/20 10:41:45;;;;;;;5.80;3.70;;;10.80;61.70;;;;;;5033373;28;20035;-89
2024/02/20 10:44:12;;;;;;;7.20;3.95;;;10.80;61.80;;;;;;5032890;28;20037;-89
2024/02/20 10:46:39;;;;;;;6.43;3.78;;;10.80;62.10;;;;;;5029426;28;20039;-91
2024/02/20 10:49:24;;;;;;;5.97;3.97;;;10.80;62.20;;;;;;5028837;28;20028;-92
2024/02/20 10:51:54;;;;;;;4.78;3.65;;;10.80;62.50;;;;;;5020777;28;20037;-90
2024/02/20 10:54:21;;;;;;;8.93;3.92;;;10.80;62.70;;;;;;5017607;28;20039;-91
2024/02/20 10:56:48;;;;;;;5.72;3.40;;;10.80;62.70;;;;;;5016899;28;20041;-91
2024/02/20 10:59:17;;;;;;;5.35;3.33;;;10.80;62.60;;;;;;5025349;28;20040;-91
2024/02/20 11:01:43;;;;;;;5.10;3.38;;;10.80;62.40;;;;;;5012503;28;20534;-90
2024/02/20 11:04:09;;;;;;;5.90;3.13;;;10.80;62.40;;;;;;5018020;28;20163;-91
2024/02/20 11:06:37;;;;;;;4.57;3.40;;;10.80;62.10;;;;;;5030470;28;20802;-91
2024/02/20 11:09:10;;;;;;;3.83;3.00;;;10.80;61.60;;;;;;5031374;28;20039;-90
2024/02/20 11:11:37;;;;;;;4.60;3.05;;;10.80;61.50;;;;;;5015973;28;20044;-90
2024/02/20 11:14:03;;;;;;;3.67;2.88;;;10.80;61.40;;;;;;5015639;28;20033;-91
2024/02/20 11:16:34;;;;;;;3.45;2.80;;;10.70;61.60;;;;;;5017580;28;20024;-91
2024/02/20 11:19:00;;;;;;;4.78;2.97;;;10.70;61.60;;;;;;5028147;28;20052;-91
2024/02/20 11:21:31;;;;;;;4.88;3.17;;;10.70;61.40;;;;;;5016711;28;20037;-91
2024/02/20 11:23:57;;;;;;;4.35;2.50;;;10.70;61.60;;;;;;5008595;28;20032;-90
2024/02/20 11:26:33;;;;;;;4.35;2.63;;;10.60;61.70;;;;;;5027847;28;20025;-91
2024/02/20 11:29:00;;;;;;;5.65;2.70;;;10.60;61.50;;;;;;5015983;28;20503;-93
2024/02/20 11:31:27;;;;;;;2.85;2.38;;;10.60;61.90;;;;;;5033853;28;20028;-90
2024/02/20 11:33:55;;;;;;;5.07;2.80;;;10.60;62.50;;;;;;5028814;28;20032;-89
2024/02/20 11:36:21;;;;;;;3.13;2.63;;;10.60;62.50;;;;;;5029730;28;20441;-89
2024/02/20 11:39:05;;;;;;;4.00;2.60;;;10.60;62.00;;;;;;5016664;28;20047;-90
2024/02/20 11:41:32;;;;;;;3.78;2.20;;;10.60;62.10;;;;;;5036071;28;20039;-90
2024/02/20 11:44:03;;;;;;;2.00;1.70;;;10.60;61.90;;;;;;5013935;28;20029;-90
2024/02/20 11:46:30;;;;;;;3.10;1.85;;;10.60;62.00;;;;;;5032189;28;20123;-91
2024/02/20 11:48:56;;;;;;;3.85;2.10;;;10.60;62.10;;;;;;5017475;28;20068;-89
2024/02/20 11:51:25;;;;;;;3.35;2.20;;;10.60;62.00;;;;;;5016918;28;20036;-90
2024/02/20 11:54:05;;;;;;;3.35;2.28;;;10.60;62.10;;;;;;5032827;28;20043;-91
2024/02/20 11:56:33;;;;;;;3.50;2.28;;;10.60;62.10;;;;;;5015679;28;20897;-89
2024/02/20 11:59:00;;;;;;;2.38;2.00;;;10.50;62.10;;;;;;5043774;28;20041;-83
2024/02/20 12:01:45;;;;;;;3.25;2.13;;;10.50;62.50;;;;;;5043416;28;20032;-84
2024/02/20 12:04:12;;;;;;;2.33;2.05;;;10.50;62.90;;;;;;5031192;28;20056;-83
2024/02/20 12:06:39;;;;;;;3.03;2.10;;;10.50;62.30;;;;;;5060930;28;20036;-82
2024/02/20 12:09:15;;;;;;;3.47;2.40;;;10.60;62.50;;;;;;5059784;28;20086;-81
2024/02/20 12:11:51;;;;;;;4.80;2.40;;;10.60;63.70;;;;;;5040544;28;20534;-81
2024/02/20 12:14:17;;;;;;;3.58;2.50;;;10.70;64.60;;;;;;5059618;28;20131;-82
2024/02/20 12:16:44;;;;;;;7.95;2.45;;;10.70;65.30;;;;;;5043934;28;20625;-89
2024/02/20 12:19:10;;;;;;;5.28;2.33;;;10.70;65.50;;;;;;5030936;28;20472;-91
2024/02/20 12:21:38;;;;;;;3.17;2.30;;;10.70;65.80;;;;;;5061368;28;20106;-86
2024/02/20 12:24:07;;;;;;;2.53;2.00;;;10.80;66.30;;;;;;5039757;28;20041;-86
2024/02/20 12:26:33;;;;;;;4.05;2.00;;;10.80;66.60;;;;;;5037833;28;20094;-81
2024/02/20 12:28:59;;;;;;;4.18;1.98;;;10.80;66.70;;;;;;5037734;28;20037;-86
2024/02/20 12:31:30;;;;;;;3.67;1.90;;;10.80;67.00;;;;;;5043624;28;20031;-83
2024/02/20 12:33:59;;;;;;;2.30;1.75;;;10.80;67.10;;;;;;5057435;28;20032;-83
2024/02/20 12:36:28;;;;;;;2.88;1.73;;;10.90;67.80;;;;;;5041255;28;20036;-83
2024/02/20 12:38:54;;;;;;;2.25;1.55;;;10.90;67.80;;;;;;5058654;28;20138;-85
2024/02/20 12:41:20;;;;;;;3.58;1.90;;;10.90;67.80;;;;;;5057713;28;20029;-83
2024/02/20 12:43:46;;;;;;;2.75;1.70;;;10.90;67.60;;;;;;5057168;28;20059;-83
2024/02/20 12:46:12;;;;;;;4.05;1.58;;;10.90;67.60;;;;;;5040949;28;20094;-83
2024/02/20 12:48:40;;;;;;;4.05;1.60;;;10.90;67.90;;;;;;5059482;28;20119;-84
2024/02/20 12:51:06;;;;;;;3.63;1.88;;;10.90;68.30;;;;;;5040010;28;20036;-83